sensor_id;sensor_type;location;lat;lon;timestamp;pressure;altitude;pressure_sealevel;temperature;humidity
10897;BME280;5501;51.176;6.470;2023-08-06T00:01:44;99879.28;;;16.89;100.00
10897;BME280;5501;51.176;6.470;2023-08-06T00:06:46;99868.53;;;16.89;100.00
10897;BME280;5501;51.176;6.470;2023-08-06T00:11:48;99876.06;;;16.84;100.00
10897;BME280;5501;51.176;6.470;2023-08-06T00:16:49;99874.16;;;16.99;100.00
10897;BME280;5501;51.176;6.470;2023-08-06T00:21:51;99855.00;;;16.78;100.00
10897;BME280;5501;51.176;6.470;2023-08-06T00:26:52;99851.53;;;16.76;100.00
10897;BME280;5501;51.176;6.470;2023-08-06T00:31:54;99845.00;;;16.80;100.00
10897;BME280;5501;51.176;6.470;2023-08-06T00:36:56;99848.22;;;16.85;100.00
10897;BME280;5501;51.176;6.470;2023-08-06T00:41:57;99856.53;;;16.82;100.00
10897;BME280;5501;51.176;6.470;2023-08-06T00:46:59;99856.91;;;16.76;100.00
10897;BME280;5501;51.176;6.470;2023-08-06T00:52:03;99856.41;;;16.57;100.00
10897;BME280;5501;51.176;6.470;2023-08-06T00:57:07;99855.44;;;16.85;100.00
10897;BME280;5501;51.176;6.470;2023-08-06T01:02:10;99858.38;;;16.94;100.00
10897;BME280;5501;51.176;6.470;2023-08-06T01:12:47;99855.69;;;16.94;100.00
10897;BME280;5501;51.176;6.470;2023-08-06T01:17:49;99856.25;;;16.99;100.00
10897;BME280;5501;51.176;6.470;2023-08-06T01:22:51;99856.00;;;17.02;100.00
10897;BME280;5501;51.176;6.470;2023-08-06T01:27:54;99860.44;;;17.03;100.00
10897;BME280;5501;51.176;6.470;2023-08-06T01:33:04;99850.31;;;16.94;100.00
10897;BME280;5501;51.176;6.470;2023-08-06T01:38:06;99847.56;;;17.08;100.00
10897;BME280;5501;51.176;6.470;2023-08-06T01:43:07;99851.50;;;17.03;100.00
10897;BME280;5501;51.176;6.470;2023-08-06T01:48:09;99838.94;;;17.03;100.00
10897;BME280;5501;51.176;6.470;2023-08-06T01:53:10;99832.94;;;17.12;100.00
10897;BME280;5501;51.176;6.470;2023-08-06T01:58:12;99834.44;;;17.16;100.00
10897;BME280;5501;51.176;6.470;2023-08-06T02:03:14;99826.25;;;17.05;100.00
10897;BME280;5501;51.176;6.470;2023-08-06T02:08:15;99824.94;;;16.98;100.00
10897;BME280;5501;51.176;6.470;2023-08-06T02:13:17;99826.06;;;17.08;100.00
10897;BME280;5501;51.176;6.470;2023-08-06T02:18:18;99821.31;;;17.12;100.00
10897;BME280;5501;51.176;6.470;2023-08-06T02:23:20;99813.16;;;17.13;100.00
10897;BME280;5501;51.176;6.470;2023-08-06T02:28:21;99820.44;;;16.99;100.00
10897;BME280;5501;51.176;6.470;2023-08-06T02:33:23;99812.81;;;17.05;100.00
10897;BME280;5501;51.176;6.470;2023-08-06T02:38:24;99806.91;;;17.00;100.00
10897;BME280;5501;51.176;6.470;2023-08-06T02:43:26;99790.59;;;17.03;100.00
10897;BME280;5501;51.176;6.470;2023-08-06T02:48:27;99793.81;;;17.08;100.00
10897;BME280;5501;51.176;6.470;2023-08-06T02:53:29;99790.81;;;17.13;100.00
10897;BME280;5501;51.176;6.470;2023-08-06T02:58:33;99781.75;;;17.01;100.00
10897;BME280;5501;51.176;6.470;2023-08-06T03:03:47;99785.97;;;17.05;100.00
10897;BME280;5501;51.176;6.470;2023-08-06T03:08:55;99775.84;;;16.96;100.00
10897;BME280;5501;51.176;6.470;2023-08-06T03:13:57;99770.19;;;17.01;100.00
10897;BME280;5501;51.176;6.470;2023-08-06T03:18:59;99774.00;;;16.84;100.00
10897;BME280;5501;51.176;6.470;2023-08-06T03:24:00;99767.13;;;16.80;100.00
10897;BME280;5501;51.176;6.470;2023-08-06T03:29:04;99765.69;;;16.62;100.00
10897;BME280;5501;51.176;6.470;2023-08-06T03:34:08;99764.09;;;16.72;100.00
10897;BME280;5501;51.176;6.470;2023-08-06T03:39:10;99761.28;;;16.61;100.00
10897;BME280;5501;51.176;6.470;2023-08-06T03:44:12;99767.09;;;16.68;100.00
10897;BME280;5501;51.176;6.470;2023-08-06T03:49:15;99760.88;;;16.80;100.00
10897;BME280;5501;51.176;6.470;2023-08-06T03:54:16;99768.19;;;16.78;100.00
10897;BME280;5501;51.176;6.470;2023-08-06T03:59:18;99767.31;;;16.77;100.00
10897;BME280;5501;51.176;6.470;2023-08-06T04:04:21;99770.09;;;16.76;100.00
10897;BME280;5501;51.176;6.470;2023-08-06T04:09:22;99769.28;;;16.75;100.00
10897;BME280;5501;51.176;6.470;2023-08-06T04:14:26;99768.63;;;16.84;100.00
10897;BME280;5501;51.176;6.470;2023-08-06T04:19:27;99776.34;;;16.76;100.00
10897;BME280;5501;51.176;6.470;2023-08-06T04:24:29;99763.84;;;16.63;100.00
10897;BME280;5501;51.176;6.470;2023-08-06T04:29:30;99770.63;;;16.68;100.00
10897;BME280;5501;51.176;6.470;2023-08-06T04:34:33;99775.72;;;16.73;100.00
10897;BME280;5501;51.176;6.470;2023-08-06T04:39:35;99772.94;;;16.74;100.00
10897;BME280;5501;51.176;6.470;2023-08-06T04:44:37;99777.81;;;16.94;100.00
10897;BME280;5501;51.176;6.470;2023-08-06T04:49:39;99781.31;;;16.82;100.00
10897;BME280;5501;51.176;6.470;2023-08-06T04:54:40;99777.66;;;16.83;100.00
10897;BME280;5501;51.176;6.470;2023-08-06T04:59:42;99775.94;;;16.82;100.00
10897;BME280;5501;51.176;6.470;2023-08-06T05:04:43;99773.59;;;16.90;100.00
10897;BME280;5501;51.176;6.470;2023-08-06T05:09:45;99785.00;;;17.06;100.00
10897;BME280;5501;51.176;6.470;2023-08-06T05:14:46;99780.50;;;16.94;100.00
10897;BME280;5501;51.176;6.470;2023-08-06T05:19:48;99790.56;;;16.91;100.00
10897;BME280;5501;51.176;6.470;2023-08-06T05:24:49;99793.34;;;16.89;100.00
10897;BME280;5501;51.176;6.470;2023-08-06T05:29:54;99794.03;;;16.93;100.00
10897;BME280;5501;51.176;6.470;2023-08-06T05:34:57;99794.22;;;16.90;100.00
10897;BME280;5501;51.176;6.470;2023-08-06T05:39:58;99801.53;;;17.00;100.00
10897;BME280;5501;51.176;6.470;2023-08-06T05:45:00;99801.09;;;16.94;100.00
10897;BME280;5501;51.176;6.470;2023-08-06T05:50:01;99808.22;;;17.07;100.00
10897;BME280;5501;51.176;6.470;2023-08-06T05:55:03;99819.81;;;16.95;100.00
10897;BME280;5501;51.176;6.470;2023-08-06T06:00:05;99822.94;;;17.14;100.00
10897;BME280;5501;51.176;6.470;2023-08-06T06:05:12;99818.97;;;17.07;100.00
10897;BME280;5501;51.176;6.470;2023-08-06T06:10:14;99831.22;;;17.11;100.00
10897;BME280;5501;51.176;6.470;2023-08-06T06:15:16;99829.34;;;16.87;100.00
10897;BME280;5501;51.176;6.470;2023-08-06T06:20:17;99827.78;;;17.09;100.00
10897;BME280;5501;51.176;6.470;2023-08-06T06:25:18;99832.50;;;17.18;100.00
10897;BME280;5501;51.176;6.470;2023-08-06T06:30:20;99851.94;;;17.09;100.00
10897;BME280;5501;51.176;6.470;2023-08-06T06:35:22;99850.78;;;17.13;100.00
10897;BME280;5501;51.176;6.470;2023-08-06T06:40:23;99854.25;;;17.15;100.00
10897;BME280;5501;51.176;6.470;2023-08-06T06:45:25;99856.94;;;17.15;100.00
10897;BME280;5501;51.176;6.470;2023-08-06T06:50:26;99858.34;;;17.33;100.00
10897;BME280;5501;51.176;6.470;2023-08-06T06:55:28;99857.66;;;17.17;100.00
10897;BME280;5501;51.176;6.470;2023-08-06T07:00:29;99861.81;;;17.35;100.00
10897;BME280;5501;51.176;6.470;2023-08-06T07:05:31;99862.00;;;17.32;100.00
10897;BME280;5501;51.176;6.470;2023-08-06T07:10:32;99870.59;;;17.37;100.00
10897;BME280;5501;51.176;6.470;2023-08-06T07:15:34;99875.81;;;17.65;100.00
10897;BME280;5501;51.176;6.470;2023-08-06T07:20:36;99881.06;;;17.79;100.00
10897;BME280;5501;51.176;6.470;2023-08-06T07:25:37;99882.69;;;17.94;100.00
10897;BME280;5501;51.176;6.470;2023-08-06T07:30:39;99879.59;;;18.00;100.00
10897;BME280;5501;51.176;6.470;2023-08-06T07:35:41;99885.03;;;18.11;100.00
10897;BME280;5501;51.176;6.470;2023-08-06T07:40:44;99885.50;;;18.05;100.00
10897;BME280;5501;51.176;6.470;2023-08-06T07:45:46;99888.91;;;18.20;100.00
10897;BME280;5501;51.176;6.470;2023-08-06T07:50:51;99902.16;;;18.10;100.00
10897;BME280;5501;51.176;6.470;2023-08-06T07:55:54;99907.00;;;18.18;100.00
10897;BME280;5501;51.176;6.470;2023-08-06T08:00:56;99902.69;;;18.28;100.00
10897;BME280;5501;51.176;6.470;2023-08-06T08:05:57;99905.31;;;18.04;100.00
10897;BME280;5501;51.176;6.470;2023-08-06T08:10:59;99908.09;;;17.90;100.00
10897;BME280;5501;51.176;6.470;2023-08-06T08:16:02;99915.44;;;17.88;100.00
10897;BME280;5501;51.176;6.470;2023-08-06T08:21:03;99920.56;;;17.91;100.00
10897;BME280;5501;51.176;6.470;2023-08-06T08:26:05;99922.81;;;18.22;100.00
10897;BME280;5501;51.176;6.470;2023-08-06T08:31:10;99922.50;;;18.39;100.00
10897;BME280;5501;51.176;6.470;2023-08-06T08:36:12;99927.69;;;18.78;100.00
10897;BME280;5501;51.176;6.470;2023-08-06T08:41:15;99928.25;;;18.94;100.00
10897;BME280;5501;51.176;6.470;2023-08-06T08:46:18;99934.84;;;18.90;100.00
10897;BME280;5501;51.176;6.470;2023-08-06T08:51:20;99942.63;;;18.46;100.00
10897;BME280;5501;51.176;6.470;2023-08-06T08:56:22;99958.47;;;17.88;100.00
10897;BME280;5501;51.176;6.470;2023-08-06T09:01:24;99953.50;;;17.70;100.00
10897;BME280;5501;51.176;6.470;2023-08-06T09:06:27;99964.84;;;17.48;100.00
10897;BME280;5501;51.176;6.470;2023-08-06T09:11:33;99963.81;;;17.10;100.00
10897;BME280;5501;51.176;6.470;2023-08-06T09:16:40;99975.59;;;16.95;100.00
10897;BME280;5501;51.176;6.470;2023-08-06T09:21:42;99988.06;;;16.96;100.00
10897;BME280;5501;51.176;6.470;2023-08-06T09:26:44;99984.91;;;16.90;100.00
10897;BME280;5501;51.176;6.470;2023-08-06T09:31:48;99999.22;;;16.90;100.00
10897;BME280;5501;51.176;6.470;2023-08-06T09:36:52;99999.34;;;17.15;100.00
10897;BME280;5501;51.176;6.470;2023-08-06T09:41:58;99995.41;;;17.33;100.00
10897;BME280;5501;51.176;6.470;2023-08-06T09:47:02;100017.78;;;17.07;100.00
10897;BME280;5501;51.176;6.470;2023-08-06T09:52:05;100022.34;;;17.19;100.00
10897;BME280;5501;51.176;6.470;2023-08-06T09:57:07;100038.91;;;16.85;100.00
10897;BME280;5501;51.176;6.470;2023-08-06T10:02:12;100046.59;;;16.77;100.00
10897;BME280;5501;51.176;6.470;2023-08-06T10:07:14;100053.25;;;16.44;100.00
10897;BME280;5501;51.176;6.470;2023-08-06T10:12:17;100059.56;;;16.57;100.00
10897;BME280;5501;51.176;6.470;2023-08-06T10:17:22;100063.78;;;16.47;100.00
10897;BME280;5501;51.176;6.470;2023-08-06T10:22:32;100074.56;;;16.31;100.00
10897;BME280;5501;51.176;6.470;2023-08-06T10:27:36;100078.22;;;16.30;100.00
10897;BME280;5501;51.176;6.470;2023-08-06T10:32:47;100086.84;;;16.35;100.00
10897;BME280;5501;51.176;6.470;2023-08-06T10:37:52;100096.91;;;15.73;100.00
10897;BME280;5501;51.176;6.470;2023-08-06T10:42:53;100086.88;;;15.76;100.00
10897;BME280;5501;51.176;6.470;2023-08-06T10:47:55;100099.34;;;15.77;100.00
10897;BME280;5501;51.176;6.470;2023-08-06T10:53:04;100097.41;;;15.79;100.00
10897;BME280;5501;51.176;6.470;2023-08-06T10:58:07;100103.97;;;15.89;100.00
10897;BME280;5501;51.176;6.470;2023-08-06T11:03:08;100096.34;;;15.97;100.00
10897;BME280;5501;51.176;6.470;2023-08-06T11:08:10;100113.44;;;16.10;100.00
10897;BME280;5501;51.176;6.470;2023-08-06T11:13:16;100117.00;;;15.95;100.00
10897;BME280;5501;51.176;6.470;2023-08-06T11:18:18;100114.97;;;16.14;100.00
10897;BME280;5501;51.176;6.470;2023-08-06T11:23:20;100122.44;;;16.09;100.00
10897;BME280;5501;51.176;6.470;2023-08-06T11:28:22;100125.31;;;16.06;100.00
10897;BME280;5501;51.176;6.470;2023-08-06T11:33:24;100126.47;;;16.16;100.00
10897;BME280;5501;51.176;6.470;2023-08-06T11:38:29;100138.78;;;16.34;100.00
10897;BME280;5501;51.176;6.470;2023-08-06T11:43:31;100147.19;;;16.58;100.00
10897;BME280;5501;51.176;6.470;2023-08-06T11:48:50;100143.63;;;16.57;100.00
10897;BME280;5501;51.176;6.470;2023-08-06T11:53:58;100148.47;;;16.80;100.00
10897;BME280;5501;51.176;6.470;2023-08-06T11:59:00;100148.28;;;16.83;100.00
10897;BME280;5501;51.176;6.470;2023-08-06T12:04:04;100158.06;;;16.98;100.00
10897;BME280;5501;51.176;6.470;2023-08-06T12:09:05;100160.38;;;16.90;100.00
10897;BME280;5501;51.176;6.470;2023-08-06T12:14:07;100159.38;;;16.77;100.00
10897;BME280;5501;51.176;6.470;2023-08-06T12:19:09;100172.25;;;16.72;100.00
10897;BME280;5501;51.176;6.470;2023-08-06T12:24:10;100165.75;;;16.90;100.00
10897;BME280;5501;51.176;6.470;2023-08-06T12:29:12;100182.44;;;16.95;100.00
10897;BME280;5501;51.176;6.470;2023-08-06T12:34:13;100192.81;;;17.15;100.00
10897;BME280;5501;51.176;6.470;2023-08-06T12:39:15;100200.84;;;16.87;100.00
10897;BME280;5501;51.176;6.470;2023-08-06T12:44:16;100199.13;;;17.00;100.00
10897;BME280;5501;51.176;6.470;2023-08-06T12:49:18;100195.28;;;17.04;100.00
10897;BME280;5501;51.176;6.470;2023-08-06T12:54:22;100209.09;;;16.84;100.00
10897;BME280;5501;51.176;6.470;2023-08-06T12:59:24;100209.09;;;16.98;100.00
10897;BME280;5501;51.176;6.470;2023-08-06T13:04:25;100224.63;;;16.79;100.00
10897;BME280;5501;51.176;6.470;2023-08-06T13:09:27;100221.97;;;17.07;100.00
10897;BME280;5501;51.176;6.470;2023-08-06T13:14:33;100218.69;;;17.02;100.00
10897;BME280;5501;51.176;6.470;2023-08-06T13:19:34;100232.22;;;16.87;100.00
10897;BME280;5501;51.176;6.470;2023-08-06T13:24:36;100235.50;;;17.06;100.00
10897;BME280;5501;51.176;6.470;2023-08-06T13:29:37;100232.19;;;17.44;100.00
10897;BME280;5501;51.176;6.470;2023-08-06T13:34:39;100247.09;;;17.90;100.00
10897;BME280;5501;51.176;6.470;2023-08-06T13:39:40;100237.72;;;17.69;100.00
10897;BME280;5501;51.176;6.470;2023-08-06T13:44:42;100250.75;;;17.75;100.00
10897;BME280;5501;51.176;6.470;2023-08-06T13:49:43;100243.03;;;17.97;100.00
10897;BME280;5501;51.176;6.470;2023-08-06T13:54:45;100238.28;;;17.74;100.00
10897;BME280;5501;51.176;6.470;2023-08-06T13:59:46;100255.13;;;18.04;100.00
10897;BME280;5501;51.176;6.470;2023-08-06T14:04:48;100256.91;;;17.77;100.00
10897;BME280;5501;51.176;6.470;2023-08-06T14:09:50;100252.28;;;17.09;100.00
10897;BME280;5501;51.176;6.470;2023-08-06T14:14:51;100263.19;;;16.78;100.00
10897;BME280;5501;51.176;6.470;2023-08-06T14:19:53;100262.56;;;17.03;100.00
10897;BME280;5501;51.176;6.470;2023-08-06T14:24:54;100267.44;;;16.96;100.00
10897;BME280;5501;51.176;6.470;2023-08-06T14:29:56;100271.66;;;17.00;100.00
10897;BME280;5501;51.176;6.470;2023-08-06T14:34:57;100291.22;;;16.88;100.00
10897;BME280;5501;51.176;6.470;2023-08-06T14:40:00;100281.25;;;16.90;100.00
10897;BME280;5501;51.176;6.470;2023-08-06T14:45:02;100293.41;;;16.52;100.00
10897;BME280;5501;51.176;6.470;2023-08-06T14:50:04;100291.84;;;16.48;100.00
10897;BME280;5501;51.176;6.470;2023-08-06T14:55:05;100299.31;;;16.43;100.00
10897;BME280;5501;51.176;6.470;2023-08-06T15:00:07;100315.72;;;16.37;100.00
10897;BME280;5501;51.176;6.470;2023-08-06T15:05:11;100319.81;;;16.44;100.00
10897;BME280;5501;51.176;6.470;2023-08-06T15:10:14;100311.44;;;16.50;100.00
10897;BME280;5501;51.176;6.470;2023-08-06T15:15:28;100330.25;;;16.64;100.00
10897;BME280;5501;51.176;6.470;2023-08-06T15:20:29;100320.91;;;16.71;100.00
10897;BME280;5501;51.176;6.470;2023-08-06T15:25:31;100342.22;;;16.74;100.00
10897;BME280;5501;51.176;6.470;2023-08-06T15:30:33;100350.19;;;16.60;100.00
10897;BME280;5501;51.176;6.470;2023-08-06T15:35:34;100347.34;;;16.63;100.00
10897;BME280;5501;51.176;6.470;2023-08-06T15:40:36;100357.50;;;16.58;100.00
10897;BME280;5501;51.176;6.470;2023-08-06T15:45:38;100370.84;;;16.60;100.00
10897;BME280;5501;51.176;6.470;2023-08-06T15:50:40;100380.44;;;16.48;100.00
10897;BME280;5501;51.176;6.470;2023-08-06T15:55:46;100390.03;;;16.52;100.00
10897;BME280;5501;51.176;6.470;2023-08-06T16:00:47;100396.59;;;16.31;100.00
10897;BME280;5501;51.176;6.470;2023-08-06T16:05:49;100405.09;;;16.39;100.00
10897;BME280;5501;51.176;6.470;2023-08-06T16:10:51;100409.06;;;16.32;100.00
10897;BME280;5501;51.176;6.470;2023-08-06T16:15:53;100406.28;;;16.18;100.00
10897;BME280;5501;51.176;6.470;2023-08-06T16:20:54;100425.50;;;16.26;100.00
10897;BME280;5501;51.176;6.470;2023-08-06T16:25:56;100429.59;;;15.85;100.00
10897;BME280;5501;51.176;6.470;2023-08-06T16:30:57;100440.31;;;15.85;100.00
10897;BME280;5501;51.176;6.470;2023-08-06T16:35:59;100430.97;;;15.92;100.00
10897;BME280;5501;51.176;6.470;2023-08-06T16:41:15;100451.91;;;16.18;100.00
10897;BME280;5501;51.176;6.470;2023-08-06T16:46:16;100456.88;;;15.93;100.00
10897;BME280;5501;51.176;6.470;2023-08-06T16:51:18;100465.72;;;15.78;100.00
10897;BME280;5501;51.176;6.470;2023-08-06T16:56:19;100475.84;;;15.73;100.00
10897;BME280;5501;51.176;6.470;2023-08-06T17:01:21;100477.47;;;15.76;100.00
10897;BME280;5501;51.176;6.470;2023-08-06T17:06:22;100487.28;;;15.60;100.00
10897;BME280;5501;51.176;6.470;2023-08-06T17:11:24;100502.66;;;15.73;100.00
10897;BME280;5501;51.176;6.470;2023-08-06T17:16:25;100497.38;;;15.38;100.00
10897;BME280;5501;51.176;6.470;2023-08-06T17:21:28;100501.53;;;15.43;100.00
10897;BME280;5501;51.176;6.470;2023-08-06T17:26:29;100505.50;;;15.53;100.00
10897;BME280;5501;51.176;6.470;2023-08-06T17:31:32;100525.03;;;15.55;100.00
10897;BME280;5501;51.176;6.470;2023-08-06T17:36:34;100537.19;;;15.26;100.00
10897;BME280;5501;51.176;6.470;2023-08-06T17:41:35;100541.03;;;15.21;100.00
10897;BME280;5501;51.176;6.470;2023-08-06T17:46:37;100541.53;;;15.29;100.00
10897;BME280;5501;51.176;6.470;2023-08-06T17:51:38;100552.94;;;15.32;100.00
10897;BME280;5501;51.176;6.470;2023-08-06T17:56:40;100566.16;;;15.18;100.00
10897;BME280;5501;51.176;6.470;2023-08-06T18:01:41;100571.88;;;15.11;100.00
10897;BME280;5501;51.176;6.470;2023-08-06T18:06:43;100566.34;;;14.97;100.00
10897;BME280;5501;51.176;6.470;2023-08-06T18:11:45;100581.75;;;14.92;100.00
10897;BME280;5501;51.176;6.470;2023-08-06T18:16:46;100579.34;;;14.86;100.00
10897;BME280;5501;51.176;6.470;2023-08-06T18:21:48;100584.72;;;14.86;100.00
10897;BME280;5501;51.176;6.470;2023-08-06T18:26:49;100598.59;;;14.94;100.00
10897;BME280;5501;51.176;6.470;2023-08-06T18:31:51;100602.69;;;14.84;100.00
10897;BME280;5501;51.176;6.470;2023-08-06T18:36:52;100604.53;;;14.82;100.00
10897;BME280;5501;51.176;6.470;2023-08-06T18:41:54;100607.97;;;14.67;100.00
10897;BME280;5501;51.176;6.470;2023-08-06T18:46:56;100610.03;;;14.60;100.00
10897;BME280;5501;51.176;6.470;2023-08-06T18:51:58;100624.53;;;14.75;100.00
10897;BME280;5501;51.176;6.470;2023-08-06T18:56:59;100626.53;;;14.70;100.00
10897;BME280;5501;51.176;6.470;2023-08-06T19:02:02;100630.16;;;14.69;100.00
10897;BME280;5501;51.176;6.470;2023-08-06T19:07:04;100639.94;;;14.50;100.00
10897;BME280;5501;51.176;6.470;2023-08-06T19:12:06;100639.25;;;14.65;100.00
10897;BME280;5501;51.176;6.470;2023-08-06T19:17:07;100643.44;;;14.52;100.00
10897;BME280;5501;51.176;6.470;2023-08-06T19:22:10;100653.16;;;14.73;100.00
10897;BME280;5501;51.176;6.470;2023-08-06T19:27:12;100658.81;;;14.67;100.00
10897;BME280;5501;51.176;6.470;2023-08-06T19:32:13;100665.09;;;14.84;100.00
10897;BME280;5501;51.176;6.470;2023-08-06T19:37:15;100670.53;;;14.64;100.00
10897;BME280;5501;51.176;6.470;2023-08-06T19:42:17;100669.28;;;14.71;100.00
10897;BME280;5501;51.176;6.470;2023-08-06T19:47:19;100665.03;;;14.86;100.00
10897;BME280;5501;51.176;6.470;2023-08-06T19:52:20;100683.84;;;14.84;100.00
10897;BME280;5501;51.176;6.470;2023-08-06T19:57:22;100684.59;;;14.88;100.00
10897;BME280;5501;51.176;6.470;2023-08-06T20:02:25;100693.38;;;14.71;100.00
10897;BME280;5501;51.176;6.470;2023-08-06T20:07:28;100687.25;;;14.69;100.00
10897;BME280;5501;51.176;6.470;2023-08-06T20:12:29;100688.44;;;14.82;100.00
10897;BME280;5501;51.176;6.470;2023-08-06T20:17:31;100691.47;;;14.55;100.00
10897;BME280;5501;51.176;6.470;2023-08-06T20:22:32;100700.16;;;14.80;100.00
10897;BME280;5501;51.176;6.470;2023-08-06T20:27:34;100696.00;;;14.73;100.00
10897;BME280;5501;51.176;6.470;2023-08-06T20:32:35;100703.84;;;14.77;100.00
10897;BME280;5501;51.176;6.470;2023-08-06T20:37:37;100714.59;;;14.76;100.00
10897;BME280;5501;51.176;6.470;2023-08-06T20:42:38;100715.81;;;14.69;100.00
10897;BME280;5501;51.176;6.470;2023-08-06T20:47:40;100710.59;;;14.66;100.00
10897;BME280;5501;51.176;6.470;2023-08-06T20:52:42;100713.16;;;14.49;100.00
10897;BME280;5501;51.176;6.470;2023-08-06T20:57:43;100717.50;;;14.51;100.00
10897;BME280;5501;51.176;6.470;2023-08-06T21:02:45;100715.34;;;14.59;100.00
10897;BME280;5501;51.176;6.470;2023-08-06T21:07:46;100713.44;;;14.43;100.00
10897;BME280;5501;51.176;6.470;2023-08-06T21:12:48;100711.53;;;14.45;100.00
10897;BME280;5501;51.176;6.470;2023-08-06T21:17:49;100707.47;;;14.36;100.00
10897;BME280;5501;51.176;6.470;2023-08-06T21:22:51;100720.78;;;14.38;100.00
10897;BME280;5501;51.176;6.470;2023-08-06T21:27:52;100709.53;;;14.50;100.00
10897;BME280;5501;51.176;6.470;2023-08-06T21:32:54;100706.19;;;14.45;100.00
10897;BME280;5501;51.176;6.470;2023-08-06T21:37:56;100722.66;;;14.36;100.00
10897;BME280;5501;51.176;6.470;2023-08-06T21:42:57;100713.84;;;14.34;100.00
10897;BME280;5501;51.176;6.470;2023-08-06T21:47:59;100720.63;;;14.41;100.00
10897;BME280;5501;51.176;6.470;2023-08-06T21:53:01;100718.25;;;14.55;100.00
10897;BME280;5501;51.176;6.470;2023-08-06T21:58:02;100721.47;;;14.63;100.00
10897;BME280;5501;51.176;6.470;2023-08-06T22:03:04;100723.72;;;14.52;100.00
10897;BME280;5501;51.176;6.470;2023-08-06T22:08:05;100718.09;;;14.58;100.00
10897;BME280;5501;51.176;6.470;2023-08-06T22:13:07;100718.63;;;14.46;100.00
10897;BME280;5501;51.176;6.470;2023-08-06T22:18:08;100719.84;;;14.59;100.00
10897;BME280;5501;51.176;6.470;2023-08-06T22:23:11;100723.31;;;14.61;100.00
10897;BME280;5501;51.176;6.470;2023-08-06T22:28:12;100717.00;;;14.42;100.00
10897;BME280;5501;51.176;6.470;2023-08-06T22:33:14;100726.94;;;14.60;100.00
10897;BME280;5501;51.176;6.470;2023-08-06T22:38:15;100708.19;;;14.60;100.00
10897;BME280;5501;51.176;6.470;2023-08-06T22:43:17;100707.78;;;14.49;100.00
10897;BME280;5501;51.176;6.470;2023-08-06T22:48:19;100713.69;;;14.57;100.00
10897;BME280;5501;51.176;6.470;2023-08-06T22:53:20;100722.84;;;14.51;100.00
10897;BME280;5501;51.176;6.470;2023-08-06T22:58:22;100729.47;;;14.43;100.00
10897;BME280;5501;51.176;6.470;2023-08-06T23:03:23;100720.16;;;14.51;100.00
10897;BME280;5501;51.176;6.470;2023-08-06T23:08:25;100727.88;;;14.39;100.00
10897;BME280;5501;51.176;6.470;2023-08-06T23:13:26;100720.38;;;14.27;100.00
10897;BME280;5501;51.176;6.470;2023-08-06T23:18:28;100719.72;;;14.22;100.00
10897;BME280;5501;51.176;6.470;2023-08-06T23:23:29;100726.66;;;14.26;100.00
10897;BME280;5501;51.176;6.470;2023-08-06T23:28:31;100725.59;;;14.30;100.00
10897;BME280;5501;51.176;6.470;2023-08-06T23:33:32;100715.16;;;14.24;100.00
10897;BME280;5501;51.176;6.470;2023-08-06T23:38:34;100719.72;;;14.22;100.00
10897;BME280;5501;51.176;6.470;2023-08-06T23:43:35;100713.69;;;14.37;100.00
10897;BME280;5501;51.176;6.470;2023-08-06T23:48:37;100723.53;;;14.15;100.00
10897;BME280;5501;51.176;6.470;2023-08-06T23:53:38;100726.03;;;13.98;100.00
10897;BME280;5501;51.176;6.470;2023-08-06T23:58:40;100731.00;;;13.85;100.00
